Terminal Aerodrome Forecast
Issued by NWS Goodland, KS

Home | Current Version | Previous Version | Text Only | Print | Product List | Glossary On
Versions: 1 2 3 4 5 6 7 8 9 10 11 12 13 14 15
000
FTUS43 KGLD 280520
TAFGLD
TAF
KGLD 280520Z 2806/2906 32007KT P6SM BKN110
      TEMPO 2810/2813 6SM BR SCT020
     FM281300 35011KT P6SM SCT060
     FM281700 02010G20KT P6SM SCT200
     FM290000 05008KT P6SM FEW200=

USA.gov is the U.S. government's official web portal to all federal, state and local government web resources and services.